createdAt,value
2018-03-07T00:00:02.239Z,0.00
2018-03-07T00:01:02.219Z,0.00
2018-03-07T00:02:55.577Z,0.00
2018-03-07T00:03:55.535Z,0.00
2018-03-07T00:05:48.383Z,0.00
2018-03-07T00:06:48.360Z,0.00
2018-03-07T00:08:41.746Z,0.00
2018-03-07T00:09:41.719Z,0.00
2018-03-07T00:11:34.544Z,0.00
2018-03-07T00:12:34.519Z,0.00
2018-03-07T00:14:27.383Z,0.00
2018-03-07T00:15:27.353Z,0.00
2018-03-07T00:17:20.687Z,0.00
2018-03-07T00:18:20.663Z,0.00
2018-03-07T00:20:14.019Z,0.00
2018-03-07T00:21:13.986Z,0.00
2018-03-07T00:23:06.826Z,0.00
2018-03-07T00:24:06.803Z,0.00
2018-03-07T00:26:00.164Z,0.00
2018-03-07T00:27:00.129Z,0.00
2018-03-07T00:28:53.466Z,0.00
2018-03-07T00:29:53.441Z,0.00
2018-03-07T00:31:46.792Z,0.00
2018-03-07T00:32:46.766Z,0.00
2018-03-07T00:34:40.111Z,0.00
2018-03-07T00:35:40.078Z,0.00
2018-03-07T00:37:33.436Z,0.00
2018-03-07T00:38:33.398Z,0.00
2018-03-07T00:40:26.739Z,0.00
2018-03-07T00:41:26.716Z,0.00
2018-03-07T00:43:20.078Z,0.00
2018-03-07T00:44:20.036Z,0.00
2018-03-07T00:46:12.879Z,0.00
2018-03-07T00:47:12.858Z,0.00
2018-03-07T00:49:06.211Z,0.00
2018-03-07T00:50:06.176Z,0.00
2018-03-07T00:51:59.528Z,0.00
2018-03-07T00:52:59.504Z,0.00
2018-03-07T00:54:52.869Z,0.00
2018-03-07T00:55:52.827Z,0.00
2018-03-07T00:57:45.682Z,0.00
2018-03-07T00:58:45.652Z,0.00
2018-03-07T01:00:38.514Z,0.00
2018-03-07T01:01:38.475Z,0.00
2018-03-07T01:03:31.324Z,0.00
2018-03-07T01:04:31.298Z,0.00
2018-03-07T01:06:24.660Z,0.00
2018-03-07T01:07:24.653Z,0.00
2018-03-07T01:09:17.963Z,0.00
2018-03-07T01:10:17.938Z,0.00
2018-03-07T01:12:11.297Z,0.00
2018-03-07T01:13:11.257Z,0.00
2018-03-07T01:15:04.103Z,0.00
2018-03-07T01:16:04.080Z,0.00
2018-03-07T01:17:57.436Z,0.00
2018-03-07T01:18:57.401Z,0.00
2018-03-07T01:20:50.243Z,0.00
2018-03-07T01:21:50.223Z,0.00
2018-03-07T01:23:43.589Z,0.00
2018-03-07T01:24:43.541Z,0.00
2018-03-07T01:26:36.885Z,0.00
2018-03-07T01:27:36.859Z,0.00
2018-03-07T01:29:29.723Z,0.00
2018-03-07T01:30:29.684Z,0.00
2018-03-07T01:32:23.028Z,0.00
2018-03-07T01:33:22.999Z,0.00
2018-03-07T01:35:16.368Z,0.00
2018-03-07T01:36:16.316Z,0.00
2018-03-07T01:38:09.196Z,0.00
2018-03-07T01:39:09.168Z,0.00
2018-03-07T01:41:02.536Z,0.00
2018-03-07T01:42:02.485Z,0.00
2018-03-07T01:43:55.836Z,0.00
2018-03-07T01:44:55.811Z,0.00
2018-03-07T01:46:49.179Z,0.00
2018-03-07T01:47:49.128Z,0.00
2018-03-07T01:49:41.978Z,0.00
2018-03-07T01:50:41.965Z,0.00
2018-03-07T01:52:34.819Z,0.00
2018-03-07T01:53:34.799Z,0.00
2018-03-07T01:55:28.132Z,0.00
2018-03-07T01:56:28.108Z,0.00
2018-03-07T01:58:20.977Z,0.00
2018-03-07T01:59:20.937Z,0.00
2018-03-07T02:01:14.273Z,0.00
2018-03-07T02:02:14.252Z,0.00
2018-03-07T02:04:07.113Z,0.00
2018-03-07T02:05:07.076Z,0.00
2018-03-07T02:07:00.424Z,0.00
2018-03-07T02:08:00.391Z,0.00
2018-03-07T02:09:53.745Z,0.00
2018-03-07T02:10:53.707Z,0.00
2018-03-07T02:12:47.055Z,0.00
2018-03-07T02:13:47.027Z,0.00
2018-03-07T02:15:39.894Z,0.00
2018-03-07T02:16:39.853Z,0.00
2018-03-07T02:18:33.195Z,0.00
2018-03-07T02:19:33.178Z,0.00
2018-03-07T02:21:26.527Z,0.00
2018-03-07T02:22:26.492Z,0.00
2018-03-07T02:24:19.834Z,0.00
2018-03-07T02:25:19.805Z,0.00
2018-03-07T02:27:12.672Z,0.00
2018-03-07T02:28:12.634Z,0.00
2018-03-07T02:30:05.981Z,0.00
2018-03-07T02:31:05.958Z,0.00
2018-03-07T02:32:58.823Z,0.00
2018-03-07T02:33:58.786Z,0.00
2018-03-07T02:35:52.125Z,0.00
2018-03-07T02:36:52.104Z,0.00
2018-03-07T02:38:45.462Z,0.00
2018-03-07T02:39:45.424Z,0.00
2018-03-07T02:41:38.761Z,0.00
2018-03-07T02:42:38.741Z,0.00
2018-03-07T02:44:31.610Z,0.00
2018-03-07T02:45:31.566Z,0.00
2018-03-07T02:47:24.917Z,0.00
2018-03-07T02:48:24.893Z,0.00
2018-03-07T02:50:17.755Z,0.00
2018-03-07T02:51:17.714Z,0.00
2018-03-07T02:53:10.558Z,0.00
2018-03-07T02:54:10.541Z,0.00
2018-03-07T02:56:03.396Z,0.00
2018-03-07T02:57:03.358Z,0.00
2018-03-07T02:58:56.206Z,0.00
2018-03-07T02:59:56.179Z,0.00
2018-03-07T03:01:49.040Z,0.00
2018-03-07T03:02:49.007Z,0.00
2018-03-07T03:04:42.349Z,0.00
2018-03-07T03:05:42.327Z,0.00
2018-03-07T03:07:35.197Z,0.00
2018-03-07T03:08:35.152Z,0.00
2018-03-07T03:10:27.997Z,0.00
2018-03-07T03:11:28.017Z,0.00
2018-03-07T03:13:20.835Z,0.00
2018-03-07T03:14:20.797Z,0.00
2018-03-07T03:16:14.155Z,0.00
2018-03-07T03:17:14.127Z,0.00
2018-03-07T03:19:06.932Z,0.00
2018-03-07T03:20:06.891Z,0.00
2018-03-07T03:21:59.727Z,0.00
2018-03-07T03:22:59.698Z,0.00
2018-03-07T03:24:53.066Z,0.00
2018-03-07T03:25:53.028Z,0.00
2018-03-07T03:27:46.354Z,0.00
2018-03-07T03:28:46.329Z,0.00
2018-03-07T03:30:39.665Z,0.00
2018-03-07T03:31:39.626Z,0.00
2018-03-07T03:33:32.449Z,0.00
2018-03-07T03:34:32.429Z,0.00
2018-03-07T03:36:25.759Z,0.00
2018-03-07T03:37:25.721Z,0.00
2018-03-07T03:39:18.545Z,0.00
2018-03-07T03:40:18.525Z,0.00
2018-03-07T03:42:11.374Z,0.00
2018-03-07T03:43:11.324Z,0.00
2018-03-07T03:45:04.648Z,0.00
2018-03-07T03:46:04.621Z,0.00
2018-03-07T03:47:57.959Z,0.00
2018-03-07T03:48:57.918Z,0.00
2018-03-07T03:50:51.237Z,0.00
2018-03-07T03:51:51.214Z,0.00
2018-03-07T03:53:44.560Z,0.00
2018-03-07T03:54:44.509Z,0.00
2018-03-07T03:56:37.840Z,0.00
2018-03-07T03:57:37.816Z,0.00
2018-03-07T03:59:30.657Z,0.00
2018-03-07T04:00:30.613Z,0.00
2018-03-07T04:02:23.479Z,0.00
2018-03-07T04:03:23.426Z,0.00
2018-03-07T04:05:16.768Z,0.00
2018-03-07T04:06:16.739Z,0.00
2018-03-07T04:08:09.549Z,0.00
2018-03-07T04:09:09.522Z,0.00
2018-03-07T04:11:02.856Z,0.00
2018-03-07T04:12:02.822Z,0.00
2018-03-07T04:13:56.131Z,0.00
2018-03-07T04:14:56.117Z,0.00
2018-03-07T04:16:48.953Z,0.00
2018-03-07T04:17:48.914Z,0.00
2018-03-07T04:19:42.238Z,0.00
2018-03-07T04:20:42.214Z,0.00
2018-03-07T04:22:35.552Z,0.00
2018-03-07T04:23:35.516Z,0.00
2018-03-07T04:25:28.368Z,0.00
2018-03-07T04:26:28.313Z,0.00
2018-03-07T04:28:21.167Z,0.00
2018-03-07T04:29:21.130Z,0.00
2018-03-07T04:31:13.951Z,0.00
2018-03-07T04:32:13.930Z,0.00
2018-03-07T04:34:07.279Z,0.00
2018-03-07T04:35:07.242Z,0.00
2018-03-07T04:37:00.557Z,0.00
2018-03-07T04:38:00.534Z,0.00
2018-03-07T04:39:53.868Z,0.00
2018-03-07T04:40:53.830Z,0.00
2018-03-07T04:42:47.162Z,0.00
2018-03-07T04:43:47.134Z,0.00
2018-03-07T04:45:40.473Z,0.00
2018-03-07T04:46:40.438Z,0.00
2018-03-07T04:48:33.263Z,0.00
2018-03-07T04:49:33.237Z,0.00
2018-03-07T04:51:26.076Z,0.00
2018-03-07T04:52:26.040Z,0.00
2018-03-07T04:54:19.377Z,0.00
2018-03-07T04:55:19.334Z,0.00
2018-03-07T04:57:12.667Z,0.00
2018-03-07T04:58:12.635Z,0.00
2018-03-07T05:00:05.955Z,0.00
2018-03-07T05:01:05.931Z,0.00
2018-03-07T05:02:59.263Z,0.00
2018-03-07T05:03:59.229Z,0.00
2018-03-07T05:05:52.544Z,0.00
2018-03-07T05:06:52.525Z,0.00
2018-03-07T05:08:45.861Z,0.00
2018-03-07T05:09:45.822Z,0.00
2018-03-07T05:11:39.140Z,0.00
2018-03-07T05:12:39.120Z,0.00
2018-03-07T05:14:32.145Z,0.00
2018-03-07T05:15:31.938Z,0.00
2018-03-07T05:17:25.258Z,0.00
2018-03-07T05:18:25.234Z,0.00
2018-03-07T05:20:18.076Z,0.00
2018-03-07T05:21:18.036Z,0.00
2018-03-07T05:23:11.366Z,0.00
2018-03-07T05:24:11.344Z,0.00
2018-03-07T05:26:04.181Z,0.00
2018-03-07T05:27:04.145Z,0.00
2018-03-07T05:28:57.485Z,0.00
2018-03-07T05:29:57.450Z,0.00
2018-03-07T05:31:50.287Z,0.00
2018-03-07T05:32:50.248Z,0.00
2018-03-07T05:34:43.078Z,0.00
2018-03-07T05:35:43.060Z,0.00
2018-03-07T05:37:36.397Z,0.00
2018-03-07T05:38:36.381Z,4.00
2018-03-07T05:40:29.194Z,4.00
2018-03-07T05:41:29.162Z,4.00
2018-03-07T05:43:22.502Z,4.00
2018-03-07T05:44:22.458Z,4.00
2018-03-07T05:46:15.781Z,8.00
2018-03-07T05:47:15.759Z,8.00
2018-03-07T05:49:08.595Z,12.00
2018-03-07T05:50:08.565Z,12.00
2018-03-07T05:52:01.883Z,20.00
2018-03-07T05:53:01.849Z,16.00
2018-03-07T05:54:55.187Z,20.00
2018-03-07T05:55:55.151Z,20.00
2018-03-07T05:57:48.464Z,20.00
2018-03-07T05:58:48.446Z,16.00
2018-03-07T06:00:41.779Z,24.00
2018-03-07T06:01:41.738Z,20.00
2018-03-07T06:03:35.076Z,24.00
2018-03-07T06:04:35.048Z,24.00
2018-03-07T06:06:28.393Z,20.00
2018-03-07T06:07:28.350Z,20.00
2018-03-07T06:09:21.164Z,32.00
2018-03-07T06:10:21.139Z,32.00
2018-03-07T06:12:13.998Z,36.00
2018-03-07T06:13:13.940Z,32.00
2018-03-07T06:15:07.264Z,48.00
2018-03-07T06:16:07.237Z,56.00
2018-03-07T06:18:00.571Z,56.00
2018-03-07T06:19:00.533Z,48.00
2018-03-07T06:20:53.858Z,32.00
2018-03-07T06:21:53.829Z,36.00
2018-03-07T06:23:47.160Z,48.00
2018-03-07T06:24:47.128Z,64.00
2018-03-07T06:26:39.962Z,100.00
2018-03-07T06:27:39.930Z,112.00
2018-03-07T06:29:33.277Z,156.00
2018-03-07T06:30:33.232Z,168.00
2018-03-07T06:32:26.566Z,228.00
2018-03-07T06:33:26.563Z,304.00
2018-03-07T06:35:19.346Z,372.00
2018-03-07T06:36:19.292Z,376.00
2018-03-07T06:38:12.678Z,336.00
2018-03-07T06:39:12.617Z,308.00
2018-03-07T06:41:05.985Z,336.00
2018-03-07T06:42:05.950Z,348.00
2018-03-07T06:43:59.783Z,304.00
2018-03-07T06:44:59.251Z,280.00
2018-03-07T06:46:52.608Z,284.00
2018-03-07T06:47:52.566Z,276.00
2018-03-07T06:49:45.918Z,244.00
2018-03-07T06:50:45.896Z,220.00
2018-03-07T06:52:39.248Z,188.00
2018-03-07T06:53:39.208Z,188.00
2018-03-07T06:55:32.545Z,188.00
2018-03-07T06:56:32.520Z,184.00
2018-03-07T06:58:25.876Z,192.00
2018-03-07T06:59:25.839Z,204.00
2018-03-07T07:01:19.201Z,328.00
2018-03-07T07:02:19.176Z,416.00
2018-03-07T07:04:12.540Z,468.00
2018-03-07T07:05:12.497Z,468.00
2018-03-07T07:07:05.879Z,540.00
2018-03-07T07:08:05.813Z,672.00
2018-03-07T07:09:59.182Z,864.00
2018-03-07T07:10:59.136Z,916.00
2018-03-07T07:12:52.480Z,780.00
2018-03-07T07:13:52.461Z,884.00
2018-03-07T07:15:45.317Z,640.00
2018-03-07T07:16:45.321Z,564.00
2018-03-07T07:18:38.626Z,584.00
2018-03-07T07:19:38.643Z,564.00
2018-03-07T07:21:31.963Z,660.00
2018-03-07T07:22:31.959Z,772.00
2018-03-07T07:24:25.295Z,972.00
2018-03-07T07:25:25.254Z,976.00
2018-03-07T07:27:18.601Z,932.00
2018-03-07T07:28:18.671Z,876.00
2018-03-07T07:30:11.913Z,824.00
2018-03-07T07:31:11.956Z,792.00
2018-03-07T07:33:05.249Z,748.00
2018-03-07T07:34:05.212Z,832.00
2018-03-07T07:35:58.548Z,888.00
2018-03-07T07:36:58.518Z,864.00
2018-03-07T07:38:51.875Z,940.00
2018-03-07T07:39:51.837Z,940.00
2018-03-07T07:41:45.185Z,784.00
2018-03-07T07:42:45.163Z,808.00
2018-03-07T07:44:38.538Z,952.00
2018-03-07T07:45:38.494Z,1020.00
2018-03-07T07:47:31.841Z,916.00
2018-03-07T07:48:31.818Z,920.00
2018-03-07T07:50:25.180Z,828.00
2018-03-07T07:51:25.137Z,768.00
2018-03-07T07:53:18.483Z,744.00
2018-03-07T07:54:18.457Z,728.00
2018-03-07T07:56:11.996Z,700.00
2018-03-07T07:57:11.953Z,692.00
2018-03-07T07:59:04.803Z,816.00
2018-03-07T08:00:04.772Z,920.00
2018-03-07T08:01:57.803Z,1068.00
2018-03-07T08:02:57.597Z,1052.00
2018-03-07T08:04:50.951Z,1124.00
2018-03-07T08:05:50.928Z,1184.00
2018-03-07T08:07:44.286Z,1064.00
2018-03-07T08:08:44.250Z,1076.00
2018-03-07T08:10:37.586Z,1076.00
2018-03-07T08:11:37.568Z,1000.00
2018-03-07T08:13:30.953Z,996.00
2018-03-07T08:14:30.896Z,1000.00
2018-03-07T08:16:24.250Z,964.00
2018-03-07T08:17:24.226Z,932.00
2018-03-07T08:19:17.593Z,972.00
2018-03-07T08:20:17.624Z,984.00
2018-03-07T08:22:10.899Z,1004.00
2018-03-07T08:23:10.877Z,1052.00
2018-03-07T08:25:04.245Z,1104.00
2018-03-07T08:26:04.198Z,1020.00
2018-03-07T08:27:57.546Z,1108.00
2018-03-07T08:28:57.550Z,1000.00
2018-03-07T08:30:50.885Z,1004.00
2018-03-07T08:31:50.847Z,920.00
2018-03-07T08:33:44.193Z,1040.00
2018-03-07T08:34:44.167Z,848.00
2018-03-07T08:36:37.535Z,1184.00
2018-03-07T08:37:37.505Z,1084.00
2018-03-07T08:39:30.343Z,888.00
2018-03-07T08:40:30.388Z,720.00
2018-03-07T08:42:23.677Z,508.00
2018-03-07T08:43:23.646Z,560.00
2018-03-07T08:45:16.982Z,560.00
2018-03-07T08:46:16.957Z,620.00
2018-03-07T08:48:09.829Z,876.00
2018-03-07T08:49:09.792Z,1012.00
2018-03-07T08:51:03.134Z,1096.00
2018-03-07T08:52:03.109Z,1064.00
2018-03-07T08:53:56.472Z,1048.00
2018-03-07T08:54:56.447Z,1132.00
2018-03-07T08:56:49.283Z,1408.00
2018-03-07T08:57:49.258Z,1516.00
2018-03-07T08:59:42.622Z,1860.00
2018-03-07T09:00:42.579Z,2092.00
2018-03-07T09:02:35.428Z,1732.00
2018-03-07T09:03:35.408Z,1720.00
2018-03-07T09:05:28.272Z,1900.00
2018-03-07T09:06:28.235Z,1744.00
2018-03-07T09:08:21.576Z,1836.00
2018-03-07T09:09:21.557Z,1868.00
2018-03-07T09:11:14.918Z,1900.00
2018-03-07T09:12:14.879Z,1632.00
2018-03-07T09:14:08.222Z,2204.00
2018-03-07T09:15:08.192Z,2088.00
2018-03-07T09:17:01.589Z,2328.00
2018-03-07T09:18:01.525Z,2272.00
2018-03-07T09:19:54.377Z,2308.00
2018-03-07T09:20:54.348Z,2020.00
2018-03-07T09:22:47.211Z,1952.00
2018-03-07T09:23:47.176Z,1500.00
2018-03-07T09:25:40.517Z,1980.00
2018-03-07T09:26:40.500Z,2116.00
2018-03-07T09:28:33.857Z,2008.00
2018-03-07T09:29:33.830Z,1612.00
2018-03-07T09:31:27.249Z,2220.00
2018-03-07T09:32:27.145Z,2456.00
2018-03-07T09:34:20.010Z,2884.00
2018-03-07T09:35:19.970Z,2788.00
2018-03-07T09:37:12.834Z,2492.00
2018-03-07T09:38:12.802Z,2460.00
2018-03-07T09:40:06.178Z,2684.00
2018-03-07T09:41:06.126Z,2624.00
2018-03-07T09:42:58.970Z,1296.00
2018-03-07T09:43:58.948Z,1988.00
2018-03-07T09:45:52.322Z,1856.00
2018-03-07T09:46:52.289Z,2184.00
2018-03-07T09:48:45.145Z,2176.00
2018-03-07T09:49:45.124Z,2652.00
2018-03-07T09:51:37.980Z,2332.00
2018-03-07T09:52:37.944Z,2192.00
2018-03-07T09:54:31.295Z,2288.00
2018-03-07T09:55:31.271Z,2244.00
2018-03-07T09:57:24.706Z,2344.00
2018-03-07T09:58:24.597Z,2972.00
2018-03-07T10:00:17.942Z,3204.00
2018-03-07T10:01:17.916Z,3236.00
2018-03-07T10:03:11.277Z,2200.00
2018-03-07T10:04:11.242Z,1484.00
2018-03-07T10:06:04.587Z,1988.00
2018-03-07T10:07:04.569Z,2152.00
2018-03-07T10:08:57.923Z,2316.00
2018-03-07T10:09:57.883Z,2800.00
2018-03-07T10:11:51.314Z,2548.00
2018-03-07T10:12:51.210Z,2988.00
2018-03-07T10:14:44.574Z,2256.00
2018-03-07T10:15:44.531Z,1864.00
2018-03-07T10:17:37.875Z,2344.00
2018-03-07T10:18:37.858Z,1988.00
2018-03-07T10:20:31.219Z,2952.00
2018-03-07T10:21:31.187Z,2492.00
2018-03-07T10:23:24.532Z,1580.00
2018-03-07T10:24:24.510Z,2100.00
2018-03-07T10:26:17.880Z,2804.00
2018-03-07T10:27:17.851Z,2792.00
2018-03-07T10:29:11.207Z,1764.00
2018-03-07T10:30:11.172Z,2916.00
2018-03-07T10:32:04.545Z,3028.00
2018-03-07T10:33:04.539Z,3212.00
2018-03-07T10:34:57.867Z,3524.00
2018-03-07T10:35:57.843Z,3796.00
2018-03-07T10:37:50.711Z,3796.00
2018-03-07T10:38:50.673Z,3940.00
2018-03-07T10:40:44.019Z,4132.00
2018-03-07T10:41:44.001Z,3812.00
2018-03-07T10:43:36.875Z,3696.00
2018-03-07T10:44:36.833Z,3512.00
2018-03-07T10:46:29.692Z,3640.00
2018-03-07T10:47:29.665Z,3544.00
2018-03-07T10:49:22.544Z,3384.00
2018-03-07T10:50:22.507Z,3616.00
2018-03-07T10:52:15.870Z,2912.00
2018-03-07T10:53:15.829Z,2068.00
2018-03-07T10:55:09.196Z,1352.00
2018-03-07T10:56:09.150Z,1264.00
2018-03-07T10:58:02.506Z,976.00
2018-03-07T10:59:02.493Z,980.00
2018-03-07T11:00:55.347Z,1524.00
2018-03-07T11:01:55.312Z,1584.00
2018-03-07T11:03:48.658Z,2340.00
2018-03-07T11:04:48.636Z,2548.00
2018-03-07T11:06:41.999Z,1544.00
2018-03-07T11:07:41.974Z,1268.00
2018-03-07T11:09:35.304Z,924.00
2018-03-07T11:10:35.279Z,1160.00
2018-03-07T11:12:28.644Z,1200.00
2018-03-07T11:13:28.608Z,1896.00
2018-03-07T11:15:21.950Z,3064.00
2018-03-07T11:16:21.934Z,4396.00
2018-03-07T11:18:15.313Z,3364.00
2018-03-07T11:19:15.253Z,3856.00
2018-03-07T11:21:08.608Z,2864.00
2018-03-07T11:22:08.587Z,2284.00
2018-03-07T11:24:01.461Z,2648.00
2018-03-07T11:25:01.429Z,1884.00
2018-03-07T11:26:54.275Z,2220.00
2018-03-07T11:27:54.259Z,1704.00
2018-03-07T11:29:47.133Z,852.00
2018-03-07T11:30:47.157Z,712.00
2018-03-07T11:32:40.503Z,536.00
2018-03-07T11:33:40.503Z,556.00
2018-03-07T11:35:33.852Z,620.00
2018-03-07T11:36:33.799Z,764.00
2018-03-07T11:38:27.273Z,944.00
2018-03-07T11:39:27.230Z,844.00
2018-03-07T11:41:20.506Z,1880.00
2018-03-07T11:42:20.470Z,2032.00
2018-03-07T11:44:13.819Z,3144.00
2018-03-07T11:45:13.797Z,3484.00
2018-03-07T11:47:07.158Z,1580.00
2018-03-07T11:48:07.117Z,2072.00
2018-03-07T11:50:00.466Z,2584.00
2018-03-07T11:51:00.437Z,3716.00
2018-03-07T11:52:53.302Z,3020.00
2018-03-07T11:53:53.267Z,3296.00
2018-03-07T11:55:46.610Z,2684.00
2018-03-07T11:56:46.593Z,2768.00
2018-03-07T11:58:39.952Z,1912.00
2018-03-07T11:59:39.921Z,1688.00
2018-03-07T12:01:33.262Z,1640.00
2018-03-07T12:02:33.245Z,1924.00
2018-03-07T12:04:26.603Z,852.00
2018-03-07T12:05:26.565Z,1156.00
2018-03-07T12:07:19.910Z,2288.00
2018-03-07T12:08:19.888Z,2112.00
2018-03-07T12:10:12.753Z,2796.00
2018-03-07T12:11:12.716Z,4488.00
2018-03-07T12:13:05.568Z,4024.00
2018-03-07T12:14:05.544Z,4392.00
2018-03-07T12:15:58.898Z,2168.00
2018-03-07T12:16:58.859Z,1640.00
2018-03-07T12:18:52.220Z,2120.00
2018-03-07T12:19:52.196Z,2880.00
2018-03-07T12:21:45.552Z,1992.00
2018-03-07T12:22:45.511Z,1668.00
2018-03-07T12:24:38.862Z,3560.00
2018-03-07T12:25:38.858Z,4124.00
2018-03-07T12:27:31.735Z,3264.00
2018-03-07T12:28:31.673Z,3328.00
2018-03-07T12:30:24.525Z,2252.00
2018-03-07T12:31:24.505Z,2004.00
2018-03-07T12:33:17.857Z,1876.00
2018-03-07T12:34:17.825Z,1344.00
2018-03-07T12:36:11.168Z,716.00
2018-03-07T12:37:11.145Z,644.00
2018-03-07T12:39:04.508Z,404.00
2018-03-07T12:40:04.469Z,404.00
2018-03-07T12:41:57.327Z,332.00
2018-03-07T12:42:57.304Z,348.00
2018-03-07T12:44:50.668Z,420.00
2018-03-07T12:45:50.625Z,456.00
2018-03-07T12:47:43.971Z,892.00
2018-03-07T12:48:43.947Z,952.00
2018-03-07T12:50:37.315Z,896.00
2018-03-07T12:51:37.277Z,1324.00
2018-03-07T12:53:30.136Z,2448.00
2018-03-07T12:54:30.113Z,2136.00
2018-03-07T12:56:22.991Z,1912.00
2018-03-07T12:57:22.951Z,1580.00
2018-03-07T12:59:16.298Z,1304.00
2018-03-07T13:00:16.280Z,1168.00
2018-03-07T13:02:09.654Z,872.00
2018-03-07T13:03:09.598Z,588.00
2018-03-07T13:05:02.945Z,712.00
2018-03-07T13:06:02.924Z,1140.00
2018-03-07T13:07:56.880Z,1416.00
2018-03-07T13:08:56.274Z,1200.00
2018-03-07T13:10:49.605Z,924.00
2018-03-07T13:11:49.586Z,800.00
2018-03-07T13:13:42.945Z,424.00
2018-03-07T13:14:42.909Z,352.00
2018-03-07T13:16:36.282Z,340.00
2018-03-07T13:17:36.252Z,332.00
2018-03-07T13:19:29.113Z,480.00
2018-03-07T13:20:29.078Z,444.00
2018-03-07T13:22:22.421Z,576.00
2018-03-07T13:23:22.400Z,584.00
2018-03-07T13:25:15.769Z,988.00
2018-03-07T13:26:15.725Z,1448.00
2018-03-07T13:28:09.071Z,2368.00
2018-03-07T13:29:09.050Z,2716.00
2018-03-07T13:31:02.427Z,2864.00
2018-03-07T13:32:02.376Z,2648.00
2018-03-07T13:33:55.718Z,2200.00
2018-03-07T13:34:55.693Z,2840.00
2018-03-07T13:36:49.058Z,3756.00
2018-03-07T13:37:49.022Z,3804.00
2018-03-07T13:39:42.374Z,3532.00
2018-03-07T13:40:42.345Z,3420.00
2018-03-07T13:42:35.209Z,2356.00
2018-03-07T13:43:35.177Z,2056.00
2018-03-07T13:45:28.518Z,1700.00
2018-03-07T13:46:28.505Z,1532.00
2018-03-07T13:48:21.873Z,1288.00
2018-03-07T13:49:21.834Z,1060.00
2018-03-07T13:51:15.189Z,852.00
2018-03-07T13:52:15.153Z,868.00
2018-03-07T13:54:08.516Z,992.00
2018-03-07T13:55:08.481Z,1160.00
2018-03-07T13:57:02.325Z,2600.00
2018-03-07T13:58:02.314Z,2992.00
2018-03-07T13:59:55.663Z,3128.00
2018-03-07T14:00:55.627Z,2772.00
2018-03-07T14:02:48.978Z,2044.00
2018-03-07T14:03:48.957Z,2120.00
2018-03-07T14:05:41.832Z,2412.00
2018-03-07T14:06:41.787Z,2056.00
2018-03-07T14:08:35.154Z,1868.00
2018-03-07T14:09:35.128Z,1740.00
2018-03-07T14:11:28.487Z,1948.00
2018-03-07T14:12:28.444Z,2224.00
2018-03-07T14:14:21.801Z,2276.00
2018-03-07T14:15:21.778Z,2324.00
2018-03-07T14:17:15.155Z,1372.00
2018-03-07T14:18:15.112Z,1100.00
2018-03-07T14:20:07.967Z,836.00
2018-03-07T14:21:07.944Z,736.00
2018-03-07T14:23:01.304Z,628.00
2018-03-07T14:24:01.263Z,596.00
2018-03-07T14:25:54.609Z,500.00
2018-03-07T14:26:54.595Z,564.00
2018-03-07T14:28:47.955Z,788.00
2018-03-07T14:29:47.913Z,1148.00
2018-03-07T14:31:41.281Z,2632.00
2018-03-07T14:32:41.251Z,2620.00
2018-03-07T14:34:34.612Z,2832.00
2018-03-07T14:35:34.582Z,2320.00
2018-03-07T14:37:27.421Z,2752.00
2018-03-07T14:38:27.402Z,4716.00
2018-03-07T14:40:20.766Z,2464.00
2018-03-07T14:41:20.726Z,2704.00
2018-03-07T14:43:14.087Z,3364.00
2018-03-07T14:44:14.055Z,3540.00
2018-03-07T14:46:07.423Z,2832.00
2018-03-07T14:47:07.383Z,4312.00
2018-03-07T14:49:00.731Z,3392.00
2018-03-07T14:50:00.718Z,4936.00
2018-03-07T14:51:54.076Z,4848.00
2018-03-07T14:52:54.038Z,5184.00
2018-03-07T14:54:47.387Z,4544.00
2018-03-07T14:55:47.364Z,4376.00
2018-03-07T14:57:40.745Z,2216.00
2018-03-07T14:58:40.703Z,4140.00
2018-03-07T15:00:34.212Z,3380.00
2018-03-07T15:01:34.026Z,3472.00
2018-03-07T15:03:27.396Z,2224.00
2018-03-07T15:04:27.354Z,2404.00
2018-03-07T15:06:20.781Z,1752.00
2018-03-07T15:07:20.767Z,1188.00
2018-03-07T15:09:13.649Z,1244.00
2018-03-07T15:10:13.594Z,1224.00
2018-03-07T15:12:06.452Z,724.00
2018-03-07T15:13:06.428Z,400.00
2018-03-07T15:14:59.308Z,204.00
2018-03-07T15:15:59.259Z,188.00
2018-03-07T15:17:52.625Z,164.00
2018-03-07T15:18:52.591Z,116.00
2018-03-07T15:20:45.955Z,124.00
2018-03-07T15:21:45.916Z,168.00
2018-03-07T15:23:38.774Z,416.00
2018-03-07T15:24:38.747Z,356.00
2018-03-07T15:26:32.119Z,236.00
2018-03-07T15:27:32.099Z,200.00
2018-03-07T15:29:25.420Z,312.00
2018-03-07T15:30:25.407Z,324.00
2018-03-07T15:32:18.777Z,232.00
2018-03-07T15:33:18.737Z,172.00
2018-03-07T15:35:11.586Z,200.00
2018-03-07T15:36:11.567Z,216.00
2018-03-07T15:38:04.427Z,200.00
2018-03-07T15:39:04.390Z,204.00
2018-03-07T15:40:57.240Z,188.00
2018-03-07T15:41:57.215Z,184.00
2018-03-07T15:43:50.574Z,196.00
2018-03-07T15:44:50.535Z,224.00
2018-03-07T15:46:43.391Z,276.00
2018-03-07T15:47:43.360Z,312.00
2018-03-07T15:49:36.717Z,1144.00
2018-03-07T15:50:36.681Z,2184.00
2018-03-07T15:52:30.019Z,3588.00
2018-03-07T15:53:29.999Z,3700.00
2018-03-07T15:55:22.860Z,3832.00
2018-03-07T15:56:22.822Z,3860.00
2018-03-07T15:58:16.163Z,3848.00
2018-03-07T15:59:16.140Z,3868.00
2018-03-07T16:01:09.005Z,3920.00
2018-03-07T16:02:08.966Z,3852.00
2018-03-07T16:04:01.816Z,3652.00
2018-03-07T16:05:01.798Z,3540.00
2018-03-07T16:06:54.661Z,3200.00
2018-03-07T16:07:54.624Z,3020.00
2018-03-07T16:09:47.973Z,2828.00
2018-03-07T16:10:47.949Z,2384.00
2018-03-07T16:12:41.303Z,2192.00
2018-03-07T16:13:41.268Z,2564.00
2018-03-07T16:15:34.647Z,2340.00
2018-03-07T16:16:34.587Z,2032.00
2018-03-07T16:18:27.950Z,592.00
2018-03-07T16:19:27.911Z,532.00
2018-03-07T16:21:20.765Z,464.00
2018-03-07T16:22:20.741Z,436.00
2018-03-07T16:24:14.106Z,404.00
2018-03-07T16:25:14.063Z,396.00
2018-03-07T16:27:07.421Z,376.00
2018-03-07T16:28:07.397Z,364.00
2018-03-07T16:30:00.269Z,344.00
2018-03-07T16:31:00.233Z,336.00
2018-03-07T16:32:53.579Z,316.00
2018-03-07T16:33:53.556Z,300.00
2018-03-07T16:35:46.420Z,284.00
2018-03-07T16:36:46.381Z,292.00
2018-03-07T16:38:39.725Z,272.00
2018-03-07T16:39:39.726Z,252.00
2018-03-07T16:41:33.068Z,252.00
2018-03-07T16:42:33.031Z,272.00
2018-03-07T16:44:26.377Z,332.00
2018-03-07T16:45:26.350Z,368.00
2018-03-07T16:47:19.710Z,708.00
2018-03-07T16:48:19.670Z,412.00
2018-03-07T16:50:13.018Z,256.00
2018-03-07T16:51:12.992Z,260.00
2018-03-07T16:53:06.357Z,240.00
2018-03-07T16:54:06.317Z,236.00
2018-03-07T16:55:59.666Z,220.00
2018-03-07T16:56:59.662Z,200.00
2018-03-07T16:58:53.005Z,196.00
2018-03-07T16:59:52.969Z,200.00
2018-03-07T17:01:46.332Z,184.00
2018-03-07T17:02:46.316Z,152.00
2018-03-07T17:04:39.668Z,128.00
2018-03-07T17:05:39.634Z,120.00
2018-03-07T17:07:32.482Z,108.00
2018-03-07T17:08:32.459Z,100.00
2018-03-07T17:10:25.850Z,88.00
2018-03-07T17:11:25.786Z,80.00
2018-03-07T17:13:18.685Z,68.00
2018-03-07T17:14:18.614Z,60.00
2018-03-07T17:16:11.478Z,52.00
2018-03-07T17:17:11.440Z,44.00
2018-03-07T17:19:04.787Z,32.00
2018-03-07T17:20:04.761Z,28.00
2018-03-07T17:21:58.163Z,20.00
2018-03-07T17:22:58.108Z,20.00
2018-03-07T17:24:50.954Z,16.00
2018-03-07T17:25:50.928Z,16.00
2018-03-07T17:27:44.312Z,12.00
2018-03-07T17:28:44.274Z,8.00
2018-03-07T17:30:37.615Z,8.00
2018-03-07T17:31:37.599Z,8.00
2018-03-07T17:33:30.967Z,8.00
2018-03-07T17:34:30.929Z,8.00
2018-03-07T17:36:24.277Z,4.00
2018-03-07T17:37:24.251Z,4.00
2018-03-07T17:39:17.119Z,8.00
2018-03-07T17:40:17.087Z,4.00
2018-03-07T17:42:10.441Z,4.00
2018-03-07T17:43:10.410Z,4.00
2018-03-07T17:45:03.775Z,4.00
2018-03-07T17:46:03.735Z,0.00
2018-03-07T17:47:57.094Z,0.00
2018-03-07T17:48:57.067Z,4.00
2018-03-07T17:50:50.434Z,4.00
2018-03-07T17:51:50.410Z,0.00
2018-03-07T17:53:43.748Z,0.00
2018-03-07T17:54:43.723Z,4.00
2018-03-07T17:56:37.089Z,0.00
2018-03-07T17:57:37.055Z,0.00
2018-03-07T17:59:30.414Z,4.00
2018-03-07T18:00:30.390Z,4.00
2018-03-07T18:02:23.758Z,4.00
2018-03-07T18:03:23.717Z,4.00
2018-03-07T18:05:17.073Z,4.00
2018-03-07T18:06:17.049Z,4.00
2018-03-07T18:08:10.404Z,0.00
2018-03-07T18:10:08.800Z,4.00
2018-03-07T18:12:27.602Z,4.00
2018-03-07T18:13:27.582Z,4.00
2018-03-07T18:15:20.963Z,4.00